sensor_id;sensor_type;location;lat;lon;timestamp;P1;durP1;ratioP1;P2;durP2;ratioP2
66761;SDS011;53672;48.176;16.338;2023-05-10T00:00:02;7.18;;;3.05;;
66761;SDS011;53672;48.176;16.338;2023-05-10T00:05:04;5.38;;;2.80;;
66761;SDS011;53672;48.176;16.338;2023-05-10T00:10:06;6.47;;;2.60;;
66761;SDS011;53672;48.176;16.338;2023-05-10T00:15:08;6.83;;;2.83;;
66761;SDS011;53672;48.176;16.338;2023-05-10T00:20:09;7.00;;;3.08;;
66761;SDS011;53672;48.176;16.338;2023-05-10T00:25:12;7.05;;;3.05;;
66761;SDS011;53672;48.176;16.338;2023-05-10T00:30:12;8.25;;;3.35;;
66761;SDS011;53672;48.176;16.338;2023-05-10T00:35:13;6.50;;;2.87;;
66761;SDS011;53672;48.176;16.338;2023-05-10T00:40:15;11.17;;;3.00;;
66761;SDS011;53672;48.176;16.338;2023-05-10T00:45:15;7.13;;;2.95;;
66761;SDS011;53672;48.176;16.338;2023-05-10T00:50:16;8.43;;;3.10;;
66761;SDS011;53672;48.176;16.338;2023-05-10T00:55:18;7.50;;;3.00;;
66761;SDS011;53672;48.176;16.338;2023-05-10T01:00:18;6.28;;;2.88;;
66761;SDS011;53672;48.176;16.338;2023-05-10T01:05:19;6.77;;;2.97;;
66761;SDS011;53672;48.176;16.338;2023-05-10T01:10:21;7.30;;;2.93;;
66761;SDS011;53672;48.176;16.338;2023-05-10T01:15:21;6.32;;;2.17;;
66761;SDS011;53672;48.176;16.338;2023-05-10T01:20:22;6.73;;;2.90;;
66761;SDS011;53672;48.176;16.338;2023-05-10T01:25:39;6.22;;;2.92;;
66761;SDS011;53672;48.176;16.338;2023-05-10T01:36:29;7.57;;;3.60;;
66761;SDS011;53672;48.176;16.338;2023-05-10T01:41:36;6.40;;;3.08;;
66761;SDS011;53672;48.176;16.338;2023-05-10T01:46:44;7.87;;;3.23;;
66761;SDS011;53672;48.176;16.338;2023-05-10T01:51:53;7.90;;;3.40;;
66761;SDS011;53672;48.176;16.338;2023-05-10T01:57:00;10.07;;;3.70;;
66761;SDS011;53672;48.176;16.338;2023-05-10T02:02:03;7.70;;;2.87;;
66761;SDS011;53672;48.176;16.338;2023-05-10T02:07:07;9.60;;;3.70;;
66761;SDS011;53672;48.176;16.338;2023-05-10T02:12:09;7.83;;;3.50;;
66761;SDS011;53672;48.176;16.338;2023-05-10T02:17:13;9.18;;;3.85;;
66761;SDS011;53672;48.176;16.338;2023-05-10T02:22:16;7.80;;;3.63;;
66761;SDS011;53672;48.176;16.338;2023-05-10T02:27:18;9.63;;;3.50;;
66761;SDS011;53672;48.176;16.338;2023-05-10T02:32:20;9.85;;;4.10;;
66761;SDS011;53672;48.176;16.338;2023-05-10T02:37:23;8.70;;;4.27;;
66761;SDS011;53672;48.176;16.338;2023-05-10T02:42:26;8.48;;;4.20;;
66761;SDS011;53672;48.176;16.338;2023-05-10T02:47:27;8.60;;;3.67;;
66761;SDS011;53672;48.176;16.338;2023-05-10T02:52:34;13.23;;;4.33;;
66761;SDS011;53672;48.176;16.338;2023-05-10T02:57:40;8.88;;;3.95;;
66761;SDS011;53672;48.176;16.338;2023-05-10T03:02:43;8.17;;;3.67;;
66761;SDS011;53672;48.176;16.338;2023-05-10T03:07:44;9.05;;;3.78;;
66761;SDS011;53672;48.176;16.338;2023-05-10T03:12:49;8.55;;;3.92;;
66761;SDS011;53672;48.176;16.338;2023-05-10T03:18:00;8.38;;;4.25;;
66761;SDS011;53672;48.176;16.338;2023-05-10T03:23:07;11.53;;;4.40;;
66761;SDS011;53672;48.176;16.338;2023-05-10T03:28:13;11.20;;;4.30;;
66761;SDS011;53672;48.176;16.338;2023-05-10T03:33:15;10.50;;;4.32;;
66761;SDS011;53672;48.176;16.338;2023-05-10T03:38:17;11.20;;;4.03;;
66761;SDS011;53672;48.176;16.338;2023-05-10T03:43:17;9.53;;;4.43;;
66761;SDS011;53672;48.176;16.338;2023-05-10T03:48:18;8.50;;;3.93;;
66761;SDS011;53672;48.176;16.338;2023-05-10T03:53:20;9.77;;;4.60;;
66761;SDS011;53672;48.176;16.338;2023-05-10T03:58:20;10.32;;;4.50;;
66761;SDS011;53672;48.176;16.338;2023-05-10T04:03:21;10.13;;;4.30;;
66761;SDS011;53672;48.176;16.338;2023-05-10T04:08:22;9.97;;;3.70;;
66761;SDS011;53672;48.176;16.338;2023-05-10T04:13:23;10.65;;;4.30;;
66761;SDS011;53672;48.176;16.338;2023-05-10T04:18:23;10.40;;;4.37;;
66761;SDS011;53672;48.176;16.338;2023-05-10T04:23:25;9.10;;;4.10;;
66761;SDS011;53672;48.176;16.338;2023-05-10T04:28:26;8.65;;;4.60;;
66761;SDS011;53672;48.176;16.338;2023-05-10T04:33:27;9.20;;;4.40;;
66761;SDS011;53672;48.176;16.338;2023-05-10T04:38:29;9.07;;;4.00;;
66761;SDS011;53672;48.176;16.338;2023-05-10T04:43:29;9.70;;;4.60;;
66761;SDS011;53672;48.176;16.338;2023-05-10T04:48:30;7.67;;;3.90;;
66761;SDS011;53672;48.176;16.338;2023-05-10T04:53:32;12.57;;;4.10;;
66761;SDS011;53672;48.176;16.338;2023-05-10T04:58:32;7.88;;;3.97;;
66761;SDS011;53672;48.176;16.338;2023-05-10T05:03:33;8.45;;;3.58;;
66761;SDS011;53672;48.176;16.338;2023-05-10T05:08:35;8.77;;;4.00;;
66761;SDS011;53672;48.176;16.338;2023-05-10T05:13:35;8.10;;;4.17;;
66761;SDS011;53672;48.176;16.338;2023-05-10T05:18:36;9.10;;;4.40;;
66761;SDS011;53672;48.176;16.338;2023-05-10T05:23:38;10.13;;;4.60;;
66761;SDS011;53672;48.176;16.338;2023-05-10T05:28:38;8.63;;;4.40;;
66761;SDS011;53672;48.176;16.338;2023-05-10T05:33:39;8.80;;;4.13;;
66761;SDS011;53672;48.176;16.338;2023-05-10T05:38:41;11.25;;;4.22;;
66761;SDS011;53672;48.176;16.338;2023-05-10T05:43:41;7.05;;;3.75;;
66761;SDS011;53672;48.176;16.338;2023-05-10T05:48:41;8.80;;;4.07;;
66761;SDS011;53672;48.176;16.338;2023-05-10T05:53:43;8.77;;;3.87;;
66761;SDS011;53672;48.176;16.338;2023-05-10T05:58:44;9.05;;;3.67;;
66761;SDS011;53672;48.176;16.338;2023-05-10T06:03:44;9.03;;;3.97;;
66761;SDS011;53672;48.176;16.338;2023-05-10T06:08:46;8.53;;;3.50;;
66761;SDS011;53672;48.176;16.338;2023-05-10T06:13:47;9.15;;;3.63;;
66761;SDS011;53672;48.176;16.338;2023-05-10T06:18:47;6.97;;;3.40;;
66761;SDS011;53672;48.176;16.338;2023-05-10T06:23:49;8.07;;;4.00;;
66761;SDS011;53672;48.176;16.338;2023-05-10T06:28:49;9.27;;;4.00;;
66761;SDS011;53672;48.176;16.338;2023-05-10T06:33:50;7.85;;;3.58;;
66761;SDS011;53672;48.176;16.338;2023-05-10T06:38:52;8.98;;;3.47;;
66761;SDS011;53672;48.176;16.338;2023-05-10T06:43:53;7.88;;;3.95;;
66761;SDS011;53672;48.176;16.338;2023-05-10T06:48:53;9.97;;;4.40;;
66761;SDS011;53672;48.176;16.338;2023-05-10T06:53:55;7.60;;;3.73;;
66761;SDS011;53672;48.176;16.338;2023-05-10T06:58:55;8.47;;;3.80;;
66761;SDS011;53672;48.176;16.338;2023-05-10T07:03:56;7.90;;;3.80;;
66761;SDS011;53672;48.176;16.338;2023-05-10T07:08:58;6.70;;;3.42;;
66761;SDS011;53672;48.176;16.338;2023-05-10T07:13:58;7.90;;;3.77;;
66761;SDS011;53672;48.176;16.338;2023-05-10T07:18:59;9.30;;;4.27;;
66761;SDS011;53672;48.176;16.338;2023-05-10T07:24:00;8.30;;;3.80;;
66761;SDS011;53672;48.176;16.338;2023-05-10T07:29:01;6.93;;;4.00;;
66761;SDS011;53672;48.176;16.338;2023-05-10T07:34:01;9.50;;;4.00;;
66761;SDS011;53672;48.176;16.338;2023-05-10T07:39:03;6.97;;;4.17;;
66761;SDS011;53672;48.176;16.338;2023-05-10T07:44:04;7.05;;;4.03;;
66761;SDS011;53672;48.176;16.338;2023-05-10T07:49:05;7.00;;;3.27;;
66761;SDS011;53672;48.176;16.338;2023-05-10T07:54:06;8.77;;;3.93;;
66761;SDS011;53672;48.176;16.338;2023-05-10T07:59:07;9.43;;;4.07;;
66761;SDS011;53672;48.176;16.338;2023-05-10T08:04:07;7.87;;;4.13;;
66761;SDS011;53672;48.176;16.338;2023-05-10T08:09:09;6.33;;;3.23;;
66761;SDS011;53672;48.176;16.338;2023-05-10T08:14:10;10.30;;;4.32;;
66761;SDS011;53672;48.176;16.338;2023-05-10T08:19:10;8.07;;;4.17;;
66761;SDS011;53672;48.176;16.338;2023-05-10T08:24:12;7.37;;;3.63;;
66761;SDS011;53672;48.176;16.338;2023-05-10T08:29:13;6.80;;;4.00;;
66761;SDS011;53672;48.176;16.338;2023-05-10T08:34:13;9.23;;;4.13;;
66761;SDS011;53672;48.176;16.338;2023-05-10T08:39:15;11.73;;;4.20;;
66761;SDS011;53672;48.176;16.338;2023-05-10T08:44:16;7.03;;;3.70;;
66761;SDS011;53672;48.176;16.338;2023-05-10T08:49:17;9.50;;;3.63;;
66761;SDS011;53672;48.176;16.338;2023-05-10T08:54:20;8.07;;;3.90;;
66761;SDS011;53672;48.176;16.338;2023-05-10T08:59:21;8.23;;;4.00;;
66761;SDS011;53672;48.176;16.338;2023-05-10T09:04:22;6.03;;;3.35;;
66761;SDS011;53672;48.176;16.338;2023-05-10T09:09:24;6.93;;;3.23;;
66761;SDS011;53672;48.176;16.338;2023-05-10T09:14:25;6.07;;;3.17;;
66761;SDS011;53672;48.176;16.338;2023-05-10T09:19:27;7.07;;;3.00;;
66761;SDS011;53672;48.176;16.338;2023-05-10T09:24:29;5.10;;;2.63;;
66761;SDS011;53672;48.176;16.338;2023-05-10T09:29:38;5.07;;;2.80;;
66761;SDS011;53672;48.176;16.338;2023-05-10T09:34:39;4.18;;;2.30;;
66761;SDS011;53672;48.176;16.338;2023-05-10T09:39:41;5.40;;;2.10;;
66761;SDS011;53672;48.176;16.338;2023-05-10T09:44:41;4.30;;;1.92;;
66761;SDS011;53672;48.176;16.338;2023-05-10T09:49:42;4.10;;;2.10;;
66761;SDS011;53672;48.176;16.338;2023-05-10T09:54:47;4.90;;;2.33;;
66761;SDS011;53672;48.176;16.338;2023-05-10T09:59:52;3.63;;;1.90;;
66761;SDS011;53672;48.176;16.338;2023-05-10T10:04:53;3.85;;;1.55;;
66761;SDS011;53672;48.176;16.338;2023-05-10T10:14:58;4.27;;;2.10;;
66761;SDS011;53672;48.176;16.338;2023-05-10T10:20:00;3.47;;;1.80;;
66761;SDS011;53672;48.176;16.338;2023-05-10T10:25:04;4.75;;;1.70;;
66761;SDS011;53672;48.176;16.338;2023-05-10T10:30:07;4.88;;;1.65;;
66761;SDS011;53672;48.176;16.338;2023-05-10T10:35:16;3.72;;;1.80;;
66761;SDS011;53672;48.176;16.338;2023-05-10T10:40:25;3.47;;;1.87;;
66761;SDS011;53672;48.176;16.338;2023-05-10T10:45:26;4.45;;;1.88;;
66761;SDS011;53672;48.176;16.338;2023-05-10T10:50:27;5.30;;;1.80;;
66761;SDS011;53672;48.176;16.338;2023-05-10T10:55:29;3.20;;;1.80;;
66761;SDS011;53672;48.176;16.338;2023-05-10T11:00:30;4.68;;;1.90;;
66761;SDS011;53672;48.176;16.338;2023-05-10T11:10:50;4.13;;;2.30;;
66761;SDS011;53672;48.176;16.338;2023-05-10T11:15:52;8.60;;;2.10;;
66761;SDS011;53672;48.176;16.338;2023-05-10T11:20:58;5.63;;;2.05;;
66761;SDS011;53672;48.176;16.338;2023-05-10T11:26:01;3.83;;;2.22;;
66761;SDS011;53672;48.176;16.338;2023-05-10T11:31:02;5.18;;;2.20;;
66761;SDS011;53672;48.176;16.338;2023-05-10T11:36:02;4.67;;;2.00;;
66761;SDS011;53672;48.176;16.338;2023-05-10T11:41:04;4.07;;;2.03;;
66761;SDS011;53672;48.176;16.338;2023-05-10T11:46:05;4.63;;;2.22;;
66761;SDS011;53672;48.176;16.338;2023-05-10T11:51:06;3.15;;;1.70;;
66761;SDS011;53672;48.176;16.338;2023-05-10T11:56:09;4.13;;;2.10;;
66761;SDS011;53672;48.176;16.338;2023-05-10T12:01:10;3.83;;;2.03;;
66761;SDS011;53672;48.176;16.338;2023-05-10T12:06:11;3.83;;;1.80;;
66761;SDS011;53672;48.176;16.338;2023-05-10T12:11:13;5.38;;;1.95;;
66761;SDS011;53672;48.176;16.338;2023-05-10T12:16:15;4.17;;;2.00;;
66761;SDS011;53672;48.176;16.338;2023-05-10T12:21:17;4.72;;;1.92;;
66761;SDS011;53672;48.176;16.338;2023-05-10T12:26:22;6.77;;;2.00;;
66761;SDS011;53672;48.176;16.338;2023-05-10T12:31:23;4.50;;;2.05;;
66761;SDS011;53672;48.176;16.338;2023-05-10T12:36:23;5.93;;;1.83;;
66761;SDS011;53672;48.176;16.338;2023-05-10T12:41:25;5.17;;;1.77;;
66761;SDS011;53672;48.176;16.338;2023-05-10T12:46:26;3.80;;;1.98;;
66761;SDS011;53672;48.176;16.338;2023-05-10T12:51:26;5.57;;;2.00;;
66761;SDS011;53672;48.176;16.338;2023-05-10T12:56:28;4.43;;;2.30;;
66761;SDS011;53672;48.176;16.338;2023-05-10T13:01:28;3.88;;;2.03;;
66761;SDS011;53672;48.176;16.338;2023-05-10T13:06:29;4.40;;;2.20;;
66761;SDS011;53672;48.176;16.338;2023-05-10T13:11:31;6.17;;;2.53;;
66761;SDS011;53672;48.176;16.338;2023-05-10T13:16:31;5.13;;;2.50;;
66761;SDS011;53672;48.176;16.338;2023-05-10T13:21:32;4.63;;;3.00;;
66761;SDS011;53672;48.176;16.338;2023-05-10T13:26:34;4.00;;;2.23;;
66761;SDS011;53672;48.176;16.338;2023-05-10T13:31:34;6.93;;;2.50;;
66761;SDS011;53672;48.176;16.338;2023-05-10T13:36:35;5.28;;;2.60;;
66761;SDS011;53672;48.176;16.338;2023-05-10T13:41:37;4.83;;;2.30;;
66761;SDS011;53672;48.176;16.338;2023-05-10T13:46:37;4.32;;;2.58;;
66761;SDS011;53672;48.176;16.338;2023-05-10T13:51:38;6.95;;;2.67;;
66761;SDS011;53672;48.176;16.338;2023-05-10T13:56:40;5.23;;;2.30;;
66761;SDS011;53672;48.176;16.338;2023-05-10T14:01:42;4.63;;;2.43;;
66761;SDS011;53672;48.176;16.338;2023-05-10T14:06:42;4.37;;;2.40;;
66761;SDS011;53672;48.176;16.338;2023-05-10T14:11:44;7.70;;;2.50;;
66761;SDS011;53672;48.176;16.338;2023-05-10T14:16:44;5.03;;;2.78;;
66761;SDS011;53672;48.176;16.338;2023-05-10T14:21:45;5.77;;;2.50;;
66761;SDS011;53672;48.176;16.338;2023-05-10T14:26:47;4.43;;;2.20;;
66761;SDS011;53672;48.176;16.338;2023-05-10T14:31:47;4.18;;;2.17;;
66761;SDS011;53672;48.176;16.338;2023-05-10T14:36:48;7.67;;;2.43;;
66761;SDS011;53672;48.176;16.338;2023-05-10T14:41:50;6.17;;;2.53;;
66761;SDS011;53672;48.176;16.338;2023-05-10T14:46:50;6.07;;;2.50;;
66761;SDS011;53672;48.176;16.338;2023-05-10T14:51:51;4.73;;;2.23;;
66761;SDS011;53672;48.176;16.338;2023-05-10T14:56:53;3.67;;;2.20;;
66761;SDS011;53672;48.176;16.338;2023-05-10T15:01:53;4.72;;;2.22;;
66761;SDS011;53672;48.176;16.338;2023-05-10T15:06:54;4.93;;;2.00;;
66761;SDS011;53672;48.176;16.338;2023-05-10T15:11:55;7.43;;;2.47;;
66761;SDS011;53672;48.176;16.338;2023-05-10T15:16:56;5.35;;;2.50;;
66761;SDS011;53672;48.176;16.338;2023-05-10T15:21:56;5.70;;;2.03;;
66761;SDS011;53672;48.176;16.338;2023-05-10T15:26:58;3.83;;;1.70;;
66761;SDS011;53672;48.176;16.338;2023-05-10T15:31:59;5.15;;;1.90;;
66761;SDS011;53672;48.176;16.338;2023-05-10T15:37:01;4.00;;;2.03;;
66761;SDS011;53672;48.176;16.338;2023-05-10T15:42:03;3.70;;;1.83;;
66761;SDS011;53672;48.176;16.338;2023-05-10T15:47:03;3.60;;;1.90;;
66761;SDS011;53672;48.176;16.338;2023-05-10T15:52:04;5.80;;;2.03;;
66761;SDS011;53672;48.176;16.338;2023-05-10T15:57:06;4.37;;;2.00;;
66761;SDS011;53672;48.176;16.338;2023-05-10T16:02:07;6.25;;;2.00;;
66761;SDS011;53672;48.176;16.338;2023-05-10T16:07:08;5.07;;;2.10;;
66761;SDS011;53672;48.176;16.338;2023-05-10T16:12:10;5.83;;;2.03;;
66761;SDS011;53672;48.176;16.338;2023-05-10T16:17:10;7.10;;;2.08;;
66761;SDS011;53672;48.176;16.338;2023-05-10T16:22:11;4.63;;;1.70;;
66761;SDS011;53672;48.176;16.338;2023-05-10T16:27:13;5.33;;;1.77;;
66761;SDS011;53672;48.176;16.338;2023-05-10T16:32:13;5.05;;;1.92;;
66761;SDS011;53672;48.176;16.338;2023-05-10T16:37:14;5.17;;;2.00;;
66761;SDS011;53672;48.176;16.338;2023-05-10T16:42:15;5.50;;;1.97;;
66761;SDS011;53672;48.176;16.338;2023-05-10T16:47:16;5.38;;;2.00;;
66761;SDS011;53672;48.176;16.338;2023-05-10T16:52:16;4.20;;;2.00;;
66761;SDS011;53672;48.176;16.338;2023-05-10T16:57:18;4.50;;;2.10;;
66761;SDS011;53672;48.176;16.338;2023-05-10T17:02:19;4.20;;;2.00;;
66761;SDS011;53672;48.176;16.338;2023-05-10T17:07:19;5.40;;;2.20;;
66761;SDS011;53672;48.176;16.338;2023-05-10T17:12:21;4.93;;;1.97;;
66761;SDS011;53672;48.176;16.338;2023-05-10T17:17:22;5.28;;;2.28;;
66761;SDS011;53672;48.176;16.338;2023-05-10T17:22:22;5.83;;;2.20;;
66761;SDS011;53672;48.176;16.338;2023-05-10T17:27:24;4.40;;;2.30;;
66761;SDS011;53672;48.176;16.338;2023-05-10T17:32:24;5.33;;;1.90;;
66761;SDS011;53672;48.176;16.338;2023-05-10T17:37:25;4.53;;;2.10;;
66761;SDS011;53672;48.176;16.338;2023-05-10T17:42:27;5.60;;;2.30;;
66761;SDS011;53672;48.176;16.338;2023-05-10T17:47:27;6.10;;;2.30;;
66761;SDS011;53672;48.176;16.338;2023-05-10T17:52:28;8.27;;;2.57;;
66761;SDS011;53672;48.176;16.338;2023-05-10T17:57:29;6.27;;;2.27;;
66761;SDS011;53672;48.176;16.338;2023-05-10T18:02:30;4.70;;;2.17;;
66761;SDS011;53672;48.176;16.338;2023-05-10T18:07:31;4.70;;;2.00;;
66761;SDS011;53672;48.176;16.338;2023-05-10T18:12:32;5.93;;;2.30;;
66761;SDS011;53672;48.176;16.338;2023-05-10T18:17:33;9.57;;;2.30;;
66761;SDS011;53672;48.176;16.338;2023-05-10T18:22:34;8.47;;;2.50;;
66761;SDS011;53672;48.176;16.338;2023-05-10T18:27:36;4.70;;;2.35;;
66761;SDS011;53672;48.176;16.338;2023-05-10T18:32:36;4.67;;;2.37;;
66761;SDS011;53672;48.176;16.338;2023-05-10T18:37:37;4.65;;;2.28;;
66761;SDS011;53672;48.176;16.338;2023-05-10T18:42:39;9.23;;;2.13;;
66761;SDS011;53672;48.176;16.338;2023-05-10T18:47:40;5.13;;;2.50;;
66761;SDS011;53672;48.176;16.338;2023-05-10T18:52:41;6.00;;;2.30;;
66761;SDS011;53672;48.176;16.338;2023-05-10T18:57:43;6.72;;;2.50;;
66761;SDS011;53672;48.176;16.338;2023-05-10T19:02:43;5.27;;;2.10;;
66761;SDS011;53672;48.176;16.338;2023-05-10T19:07:44;6.07;;;2.23;;
66761;SDS011;53672;48.176;16.338;2023-05-10T19:12:46;5.22;;;2.20;;
66761;SDS011;53672;48.176;16.338;2023-05-10T19:17:46;5.55;;;2.40;;
66761;SDS011;53672;48.176;16.338;2023-05-10T19:22:47;6.75;;;2.38;;
66761;SDS011;53672;48.176;16.338;2023-05-10T19:27:50;7.80;;;2.80;;
66761;SDS011;53672;48.176;16.338;2023-05-10T19:32:51;4.25;;;2.30;;
66761;SDS011;53672;48.176;16.338;2023-05-10T19:37:51;5.80;;;2.27;;
66761;SDS011;53672;48.176;16.338;2023-05-10T19:42:53;4.77;;;2.50;;
66761;SDS011;53672;48.176;16.338;2023-05-10T19:47:54;6.18;;;2.40;;
66761;SDS011;53672;48.176;16.338;2023-05-10T19:52:54;4.53;;;2.20;;
66761;SDS011;53672;48.176;16.338;2023-05-10T19:57:56;5.47;;;2.37;;
66761;SDS011;53672;48.176;16.338;2023-05-10T20:02:57;5.03;;;2.50;;
66761;SDS011;53672;48.176;16.338;2023-05-10T20:07:58;7.07;;;2.60;;
66761;SDS011;53672;48.176;16.338;2023-05-10T20:13:00;5.00;;;2.50;;
66761;SDS011;53672;48.176;16.338;2023-05-10T20:18:00;4.90;;;2.55;;
66761;SDS011;53672;48.176;16.338;2023-05-10T20:23:01;6.77;;;2.50;;
66761;SDS011;53672;48.176;16.338;2023-05-10T20:28:03;6.43;;;2.40;;
66761;SDS011;53672;48.176;16.338;2023-05-10T20:33:03;4.72;;;2.40;;
66761;SDS011;53672;48.176;16.338;2023-05-10T20:38:04;5.17;;;2.10;;
66761;SDS011;53672;48.176;16.338;2023-05-10T20:43:06;4.80;;;2.50;;
66761;SDS011;53672;48.176;16.338;2023-05-10T20:48:06;5.47;;;2.47;;
66761;SDS011;53672;48.176;16.338;2023-05-10T20:53:07;5.40;;;2.77;;
66761;SDS011;53672;48.176;16.338;2023-05-10T20:58:09;6.18;;;2.67;;
66761;SDS011;53672;48.176;16.338;2023-05-10T21:03:09;5.63;;;2.22;;
66761;SDS011;53672;48.176;16.338;2023-05-10T21:08:10;6.13;;;2.50;;
66761;SDS011;53672;48.176;16.338;2023-05-10T21:13:12;4.53;;;2.60;;
66761;SDS011;53672;48.176;16.338;2023-05-10T21:18:12;5.78;;;2.85;;
66761;SDS011;53672;48.176;16.338;2023-05-10T21:23:13;6.90;;;2.63;;
66761;SDS011;53672;48.176;16.338;2023-05-10T21:28:14;4.60;;;2.40;;
66761;SDS011;53672;48.176;16.338;2023-05-10T21:33:15;5.00;;;2.50;;
66761;SDS011;53672;48.176;16.338;2023-05-10T21:38:15;5.20;;;2.57;;
66761;SDS011;53672;48.176;16.338;2023-05-10T21:43:17;5.13;;;2.40;;
66761;SDS011;53672;48.176;16.338;2023-05-10T21:48:18;5.67;;;2.87;;
66761;SDS011;53672;48.176;16.338;2023-05-10T21:53:18;6.80;;;2.95;;
66761;SDS011;53672;48.176;16.338;2023-05-10T21:58:20;5.07;;;2.67;;
66761;SDS011;53672;48.176;16.338;2023-05-10T22:03:20;5.80;;;2.67;;
66761;SDS011;53672;48.176;16.338;2023-05-10T22:08:21;5.93;;;2.70;;
66761;SDS011;53672;48.176;16.338;2023-05-10T22:13:23;6.17;;;2.90;;
66761;SDS011;53672;48.176;16.338;2023-05-10T22:18:24;7.00;;;3.08;;
66761;SDS011;53672;48.176;16.338;2023-05-10T22:23:24;5.80;;;3.10;;
66761;SDS011;53672;48.176;16.338;2023-05-10T22:28:26;5.77;;;3.23;;
66761;SDS011;53672;48.176;16.338;2023-05-10T22:33:26;6.45;;;3.28;;
66761;SDS011;53672;48.176;16.338;2023-05-10T22:38:27;5.87;;;3.00;;
66761;SDS011;53672;48.176;16.338;2023-05-10T22:43:29;5.10;;;2.67;;
66761;SDS011;53672;48.176;16.338;2023-05-10T22:48:29;6.65;;;3.22;;
66761;SDS011;53672;48.176;16.338;2023-05-10T22:53:33;6.60;;;2.90;;
66761;SDS011;53672;48.176;16.338;2023-05-10T22:58:35;5.90;;;2.77;;
66761;SDS011;53672;48.176;16.338;2023-05-10T23:03:35;6.22;;;2.97;;
66761;SDS011;53672;48.176;16.338;2023-05-10T23:08:36;6.63;;;2.93;;
66761;SDS011;53672;48.176;16.338;2023-05-10T23:13:37;6.13;;;3.00;;
66761;SDS011;53672;48.176;16.338;2023-05-10T23:18:38;6.70;;;2.83;;
66761;SDS011;53672;48.176;16.338;2023-05-10T23:23:38;7.40;;;2.90;;
66761;SDS011;53672;48.176;16.338;2023-05-10T23:28:40;8.10;;;3.00;;
66761;SDS011;53672;48.176;16.338;2023-05-10T23:33:41;4.90;;;2.80;;
66761;SDS011;53672;48.176;16.338;2023-05-10T23:38:41;6.45;;;2.60;;
66761;SDS011;53672;48.176;16.338;2023-05-10T23:43:43;5.22;;;2.70;;
66761;SDS011;53672;48.176;16.338;2023-05-10T23:48:43;6.10;;;2.70;;
66761;SDS011;53672;48.176;16.338;2023-05-10T23:53:44;8.63;;;2.93;;
66761;SDS011;53672;48.176;16.338;2023-05-10T23:58:46;4.97;;;2.27;;
